Time;durP1;ratioP1;P1;durP2;ratioP2;P2;SDS_P1;SDS_P2;PMS_P1;PMS_P2;Temp;Humidity;BMP_temperature;BMP_pressure;BME280_temperature;BME280_humidity;BME280_pressure;Samples;Min_cycle;Max_cycle;Signal;HPM_P1;HPM_P2
2022/06/24 00:00:01;;;;;;;37.33;22.40;;;18.20;99.90;;;;;;5062703;28;20021;-69
2022/06/24 00:02:27;;;;;;;39.95;23.85;;;18.30;99.90;;;;;;5062686;28;20208;-69
2022/06/24 00:04:55;;;;;;;38.58;23.02;;;18.20;99.90;;;;;;5063393;28;20028;-69
2022/06/24 00:07:21;;;;;;;41.33;22.50;;;18.20;99.90;;;;;;5062663;28;20025;-69
2022/06/24 00:09:47;;;;;;;40.35;24.48;;;18.30;99.90;;;;;;5063749;28;20033;-69
2022/06/24 00:12:15;;;;;;;35.88;22.75;;;18.20;99.90;;;;;;5061763;28;20284;-69
2022/06/24 00:14:45;;;;;;;38.47;22.33;;;18.20;99.90;;;;;;5062564;28;20029;-69
2022/06/24 00:17:13;;;;;;;39.75;24.70;;;18.20;99.90;;;;;;5063401;28;20024;-69
2022/06/24 00:19:57;;;;;;;43.90;23.73;;;18.00;99.90;;;;;;5062311;28;20063;-69
2022/06/24 00:22:24;;;;;;;38.22;23.83;;;17.90;99.90;;;;;;5062473;28;20044;-68
2022/06/24 00:25:07;;;;;;;42.55;25.08;;;17.80;99.90;;;;;;5062310;28;20028;-69
2022/06/24 00:27:33;;;;;;;36.90;23.90;;;17.80;99.90;;;;;;5045971;28;20112;-69
2022/06/24 00:30:10;;;;;;;40.75;23.88;;;17.80;99.90;;;;;;5062295;28;20033;-69
2022/06/24 00:32:36;;;;;;;43.08;24.90;;;17.70;99.90;;;;;;5062397;28;20363;-69
2022/06/24 00:35:12;;;;;;;44.25;24.55;;;17.60;99.90;;;;;;5061993;28;20032;-68
2022/06/24 00:37:40;;;;;;;40.42;25.45;;;17.60;99.90;;;;;;5063139;28;20316;-69
2022/06/24 00:40:24;;;;;;;44.03;25.55;;;17.60;99.90;;;;;;5062142;28;20239;-69
2022/06/24 00:42:50;;;;;;;39.00;24.27;;;17.50;99.90;;;;;;5042312;28;20028;-69
2022/06/24 00:45:40;;;;;;;37.25;23.77;;;17.50;99.90;;;;;;5059010;28;20029;-69
2022/06/24 00:48:13;;;;;;;39.83;23.80;;;17.60;99.90;;;;;;5062852;28;20051;-68
2022/06/24 00:50:42;;;;;;;38.47;23.83;;;17.70;99.90;;;;;;5061985;28;20025;-69
2022/06/24 00:53:11;;;;;;;41.90;23.23;;;17.70;99.90;;;;;;5060428;28;20028;-68
2022/06/24 00:55:39;;;;;;;40.83;23.70;;;17.60;99.90;;;;;;5063398;28;20047;-68
2022/06/24 00:58:10;;;;;;;39.75;24.02;;;17.60;99.90;;;;;;5061996;28;20260;-69
2022/06/24 01:00:36;;;;;;;39.42;23.08;;;17.50;99.90;;;;;;5063018;28;20085;-69
2022/06/24 01:03:04;;;;;;;43.53;23.85;;;17.40;99.90;;;;;;5063304;28;20304;-69
2022/06/24 01:05:32;;;;;;;39.50;23.38;;;17.30;99.90;;;;;;5062041;28;20025;-68
2022/06/24 01:07:59;;;;;;;44.30;23.77;;;17.40;99.90;;;;;;5063092;28;20319;-69
2022/06/24 01:10:25;;;;;;;35.65;22.17;;;17.50;99.90;;;;;;5063209;28;20027;-69
2022/06/24 01:12:51;;;;;;;37.30;21.65;;;17.60;99.90;;;;;;5062091;28;20278;-69
2022/06/24 01:15:17;;;;;;;34.80;21.95;;;17.70;99.90;;;;;;5062881;28;20028;-69
2022/06/24 01:17:43;;;;;;;35.25;20.60;;;17.70;99.90;;;;;;5063026;28;20017;-68
2022/06/24 01:20:11;;;;;;;34.72;21.73;;;17.80;99.90;;;;;;5062647;28;20032;-68
2022/06/24 01:22:38;;;;;;;37.10;20.42;;;17.80;99.90;;;;;;5061946;28;20055;-69
2022/06/24 01:25:05;;;;;;;37.80;21.02;;;17.80;99.90;;;;;;5064557;28;20305;-68
2022/06/24 01:27:31;;;;;;;36.67;20.90;;;17.80;99.90;;;;;;5066703;28;20036;-68
2022/06/24 01:29:57;;;;;;;34.78;20.77;;;17.80;99.90;;;;;;5065373;28;20028;-69
2022/06/24 01:32:22;;;;;;;32.47;20.98;;;17.80;99.90;;;;;;5065510;28;20193;-69
2022/06/24 01:34:48;;;;;;;34.10;21.83;;;17.80;99.90;;;;;;5065946;28;20025;-69
2022/06/24 01:37:14;;;;;;;36.78;22.10;;;17.70;99.90;;;;;;5066290;28;20048;-69
2022/06/24 01:39:40;;;;;;;37.15;21.15;;;17.70;99.90;;;;;;5065319;28;20304;-69
2022/06/24 01:42:06;;;;;;;32.33;19.52;;;17.70;99.90;;;;;;5081122;28;20092;-69
2022/06/24 01:44:32;;;;;;;37.45;21.50;;;17.60;99.90;;;;;;5085909;28;20049;-69
2022/06/24 01:46:58;;;;;;;33.22;20.60;;;17.50;99.90;;;;;;5075647;28;20021;-69
2022/06/24 01:49:23;;;;;;;32.53;20.70;;;17.40;99.90;;;;;;5065400;28;20036;-69
2022/06/24 01:51:52;;;;;;;34.97;20.55;;;17.40;99.90;;;;;;5064719;28;20071;-70
2022/06/24 01:54:18;;;;;;;39.28;20.73;;;17.30;99.90;;;;;;5064186;28;20032;-69
2022/06/24 01:56:44;;;;;;;34.22;19.25;;;17.20;99.90;;;;;;5048395;28;20029;-69
2022/06/24 01:59:09;;;;;;;33.20;20.50;;;17.20;99.90;;;;;;5064379;28;20032;-69
2022/06/24 02:01:35;;;;;;;33.17;20.25;;;17.10;99.90;;;;;;5066147;28;20029;-69
2022/06/24 02:04:01;;;;;;;37.28;21.25;;;17.20;99.90;;;;;;5065564;28;20048;-68
2022/06/24 02:06:26;;;;;;;33.25;19.92;;;17.20;99.90;;;;;;5064681;28;20025;-69
2022/06/24 02:08:52;;;;;;;33.17;21.45;;;17.30;99.90;;;;;;5064808;28;20220;-69
2022/06/24 02:14:07;;;;;;;33.95;19.98;;;17.40;99.90;;;;;;5050947;28;20014;-69
2022/06/24 02:16:33;;;;;;;30.83;20.40;;;17.30;99.90;;;;;;5064278;28;20009;-69
2022/06/24 02:19:00;;;;;;;33.13;20.00;;;17.20;99.90;;;;;;5065225;28;20024;-69
2022/06/24 02:21:26;;;;;;;36.60;21.45;;;17.10;99.90;;;;;;5064600;28;20353;-69
2022/06/24 02:23:53;;;;;;;32.75;20.73;;;17.10;99.90;;;;;;5065221;28;20023;-69
2022/06/24 02:26:20;;;;;;;34.97;20.65;;;17.10;99.90;;;;;;5064332;28;20028;-69
2022/06/24 02:28:45;;;;;;;41.47;21.33;;;17.20;99.90;;;;;;5064296;28;20051;-68
2022/06/24 02:31:11;;;;;;;36.28;20.55;;;17.20;99.90;;;;;;5065390;28;20013;-69
2022/06/24 02:33:37;;;;;;;30.88;19.00;;;17.20;99.90;;;;;;5064016;28;20017;-69
2022/06/24 02:36:04;;;;;;;35.90;21.23;;;17.20;99.90;;;;;;5064640;28;20047;-69
2022/06/24 02:38:30;;;;;;;34.47;21.45;;;17.30;99.90;;;;;;5065284;28;20320;-69
2022/06/24 02:40:58;;;;;;;35.28;21.05;;;17.30;99.90;;;;;;5069087;28;20032;-69
2022/06/24 02:43:30;;;;;;;32.25;19.95;;;17.20;99.90;;;;;;5067760;28;20016;-68
2022/06/24 02:46:01;;;;;;;40.20;22.15;;;17.30;99.90;;;;;;5081769;28;20079;-69
2022/06/24 02:48:28;;;;;;;35.15;22.58;;;17.30;99.90;;;;;;5064800;28;20064;-69
2022/06/24 02:50:56;;;;;;;34.58;21.88;;;17.30;99.90;;;;;;5063510;28;20138;-68
2022/06/24 02:53:22;;;;;;;33.30;21.48;;;17.40;99.90;;;;;;5062431;28;20311;-68
2022/06/24 02:55:52;;;;;;;31.05;20.50;;;17.40;99.90;;;;;;5063695;28;20028;-69
2022/06/24 02:58:17;;;;;;;32.33;20.35;;;17.40;99.90;;;;;;5065003;28;20227;-69
2022/06/24 03:00:44;;;;;;;31.05;21.20;;;17.40;99.90;;;;;;5064604;28;20044;-69
2022/06/24 03:03:10;;;;;;;28.75;19.67;;;17.30;99.90;;;;;;5063656;28;20043;-69
2022/06/24 03:05:37;;;;;;;28.45;19.27;;;17.40;99.90;;;;;;5063511;28;20311;-68
2022/06/24 03:08:03;;;;;;;28.50;19.52;;;17.40;99.90;;;;;;5063576;28;20023;-67
2022/06/24 03:10:29;;;;;;;30.85;19.65;;;17.50;99.90;;;;;;5063516;28;20020;-68
2022/06/24 03:12:54;;;;;;;31.70;20.08;;;17.50;99.90;;;;;;5046868;28;20297;-68
2022/06/24 03:15:20;;;;;;;35.42;21.90;;;17.40;99.90;;;;;;5063064;28;20016;-68
2022/06/24 03:17:46;;;;;;;32.83;20.23;;;17.30;99.90;;;;;;5064307;28;20032;-68
2022/06/24 03:20:12;;;;;;;31.50;20.80;;;17.30;99.90;;;;;;5064191;28;20067;-68
2022/06/24 03:22:39;;;;;;;32.83;19.83;;;17.30;99.90;;;;;;5063338;28;20308;-68
2022/06/24 03:25:06;;;;;;;30.02;19.48;;;17.30;99.90;;;;;;5046625;28;20021;-68
2022/06/24 03:27:32;;;;;;;31.40;20.05;;;17.30;99.90;;;;;;5063158;28;20031;-68
2022/06/24 03:29:58;;;;;;;29.13;18.65;;;17.40;99.90;;;;;;5064111;28;20037;-68
2022/06/24 03:32:24;;;;;;;33.30;18.58;;;17.30;99.90;;;;;;5063068;28;20071;-68
2022/06/24 03:34:50;;;;;;;31.15;18.23;;;17.40;99.90;;;;;;5064013;28;20230;-68
2022/06/24 03:37:16;;;;;;;29.33;18.80;;;17.40;99.90;;;;;;5062944;28;20029;-68
2022/06/24 03:39:42;;;;;;;24.20;18.02;;;17.40;99.90;;;;;;5064168;28;20074;-67
2022/06/24 03:42:07;;;;;;;30.58;17.98;;;17.50;99.90;;;;;;5077995;28;20055;-68
2022/06/24 03:44:33;;;;;;;28.75;17.00;;;17.50;99.90;;;;;;5083874;28;20012;-68
2022/06/24 03:46:59;;;;;;;28.02;15.57;;;17.50;99.90;;;;;;5072108;28;20246;-68
2022/06/24 03:49:24;;;;;;;28.10;17.00;;;17.50;99.90;;;;;;5062314;28;20033;-67
2022/06/24 03:51:50;;;;;;;23.85;16.33;;;17.50;99.90;;;;;;5063858;28;20036;-68
2022/06/24 03:54:16;;;;;;;20.85;15.65;;;17.50;99.90;;;;;;5061134;28;20025;-68
2022/06/24 03:56:43;;;;;;;24.52;16.10;;;17.60;99.90;;;;;;5045964;28;20071;-68
2022/06/24 03:59:08;;;;;;;22.83;15.68;;;17.50;99.90;;;;;;5063895;28;20056;-68
2022/06/24 04:01:34;;;;;;;22.98;14.70;;;17.50;99.90;;;;;;5062648;28;20071;-68
2022/06/24 04:04:00;;;;;;;19.77;14.98;;;17.50;99.90;;;;;;5063755;28;20028;-67
2022/06/24 04:06:25;;;;;;;20.20;14.07;;;17.50;99.90;;;;;;5063548;28;20028;-69
2022/06/24 04:08:52;;;;;;;25.02;14.60;;;17.50;99.90;;;;;;5062426;28;20052;-68
2022/06/24 04:11:18;;;;;;;18.85;14.10;;;17.60;99.90;;;;;;5063554;28;20036;-68
2022/06/24 04:13:44;;;;;;;21.50;14.15;;;17.60;99.90;;;;;;5062545;28;20024;-68
2022/06/24 04:16:11;;;;;;;24.50;14.52;;;17.60;99.90;;;;;;5063883;28;20335;-68
2022/06/24 04:18:37;;;;;;;19.98;13.25;;;17.50;99.90;;;;;;5063030;28;20017;-68
2022/06/24 04:21:09;;;;;;;19.67;13.63;;;17.50;99.90;;;;;;5063520;28;20017;-67
2022/06/24 04:23:34;;;;;;;21.73;13.75;;;17.50;99.90;;;;;;5063286;28;20216;-67
2022/06/24 04:26:00;;;;;;;19.27;13.48;;;17.50;99.90;;;;;;5045979;28;20021;-67
2022/06/24 04:28:26;;;;;;;19.20;12.25;;;17.50;99.90;;;;;;5063279;28;20036;-68
2022/06/24 04:30:52;;;;;;;20.67;12.27;;;17.60;99.90;;;;;;5063656;28;20096;-68
2022/06/24 04:33:17;;;;;;;21.83;13.13;;;17.60;99.90;;;;;;5062159;28;20052;-68
2022/06/24 04:35:43;;;;;;;18.65;12.02;;;17.50;99.90;;;;;;5063195;28;20044;-68
2022/06/24 04:38:08;;;;;;;18.70;12.00;;;17.50;99.90;;;;;;5063349;28;20032;-68
2022/06/24 04:40:34;;;;;;;15.95;11.73;;;17.50;99.90;;;;;;5065482;28;20185;-68
2022/06/24 04:43:00;;;;;;;16.30;11.10;;;17.50;99.90;;;;;;5083405;28;20056;-68
2022/06/24 04:45:26;;;;;;;19.30;12.07;;;17.50;99.90;;;;;;5083372;28;20013;-68
2022/06/24 04:47:51;;;;;;;23.98;11.35;;;17.60;99.90;;;;;;5063441;28;20247;-67
2022/06/24 04:50:17;;;;;;;19.45;11.82;;;17.60;99.90;;;;;;5061955;28;20071;-68
2022/06/24 04:52:43;;;;;;;20.90;12.32;;;17.70;99.90;;;;;;5063272;28;20251;-68
2022/06/24 04:55:09;;;;;;;16.55;11.43;;;17.70;99.90;;;;;;5060294;28;20308;-67
2022/06/24 04:57:35;;;;;;;18.73;12.23;;;17.70;99.90;;;;;;5062014;28;20025;-68
2022/06/24 05:00:01;;;;;;;22.65;12.75;;;17.70;99.90;;;;;;5065723;28;20071;-68
2022/06/24 05:02:27;;;;;;;28.83;13.07;;;17.70;99.90;;;;;;5065697;28;20080;-67
2022/06/24 05:04:52;;;;;;;20.35;13.25;;;17.70;99.90;;;;;;5067002;28;20033;-68
2022/06/24 05:07:18;;;;;;;28.35;12.98;;;17.70;99.90;;;;;;5066935;28;20052;-68
2022/06/24 05:09:46;;;;;;;22.50;13.48;;;17.70;99.90;;;;;;5065897;28;20029;-67
2022/06/24 05:12:11;;;;;;;25.45;13.50;;;17.60;99.90;;;;;;5065667;28;20033;-68
2022/06/24 05:14:37;;;;;;;29.73;15.13;;;17.60;99.90;;;;;;5066866;28;20024;-68
2022/06/24 05:17:03;;;;;;;24.08;15.18;;;17.70;99.90;;;;;;5066382;28;20021;-68
2022/06/24 05:19:29;;;;;;;26.10;15.82;;;17.70;99.90;;;;;;5066381;28;20065;-68
2022/06/24 05:21:54;;;;;;;24.30;15.77;;;17.80;99.90;;;;;;5065471;28;20181;-68
2022/06/24 05:24:20;;;;;;;27.35;17.80;;;17.70;99.90;;;;;;5066782;28;20031;-69
2022/06/24 05:26:46;;;;;;;25.50;16.80;;;17.60;99.90;;;;;;5066544;28;20102;-68
2022/06/24 05:29:12;;;;;;;26.50;17.27;;;17.50;99.90;;;;;;5064969;28;20020;-68
2022/06/24 05:31:38;;;;;;;32.28;17.45;;;17.50;99.90;;;;;;5066379;28;20324;-68
2022/06/24 05:34:04;;;;;;;26.02;17.52;;;17.60;99.90;;;;;;5066149;28;20062;-68
2022/06/24 05:36:30;;;;;;;32.00;18.45;;;17.50;99.90;;;;;;5065211;28;20239;-69
2022/06/24 05:38:56;;;;;;;29.45;17.75;;;17.50;99.90;;;;;;5065941;28;20096;-68
2022/06/24 05:41:22;;;;;;;25.10;17.30;;;17.40;99.90;;;;;;5066338;28;20021;-69
2022/06/24 05:43:48;;;;;;;26.58;17.30;;;17.30;99.90;;;;;;5064986;28;20028;-68
2022/06/24 05:46:14;;;;;;;31.27;18.70;;;17.40;99.90;;;;;;5064937;28;20296;-68
2022/06/24 05:48:40;;;;;;;24.33;15.18;;;17.50;99.90;;;;;;5063258;28;20056;-69
2022/06/24 05:51:13;;;;;;;28.02;16.67;;;17.60;99.90;;;;;;5065714;28;20032;-68
2022/06/24 05:56:25;;;;;;;24.48;15.60;;;17.70;99.90;;;;;;5063186;28;20037;-68
2022/06/24 05:58:51;;;;;;;24.20;16.00;;;17.70;99.90;;;;;;5065574;28;20090;-68
2022/06/24 06:01:17;;;;;;;26.05;15.55;;;17.70;99.90;;;;;;5065680;28;20387;-69
2022/06/24 06:03:43;;;;;;;21.25;14.05;;;17.70;99.90;;;;;;5064588;28;20080;-68
2022/06/24 06:06:09;;;;;;;34.90;15.98;;;17.70;99.90;;;;;;5065823;28;20028;-69
2022/06/24 06:08:36;;;;;;;27.83;14.60;;;17.60;99.90;;;;;;5064302;28;20316;-70
2022/06/24 06:11:11;;;;;;;26.88;14.82;;;17.70;99.90;;;;;;5064775;28;20324;-69
2022/06/24 06:13:38;;;;;;;25.05;14.63;;;17.80;99.90;;;;;;5063877;28;20017;-69
2022/06/24 06:16:04;;;;;;;25.73;14.00;;;18.00;99.90;;;;;;5064263;28;20040;-69
2022/06/24 06:18:29;;;;;;;28.88;13.15;;;18.10;99.90;;;;;;5064972;28;20375;-69
2022/06/24 06:21:00;;;;;;;27.25;14.10;;;18.10;99.90;;;;;;5065431;28;20036;-68
2022/06/24 06:23:28;;;;;;;24.10;12.48;;;18.10;99.90;;;;;;5064177;28;20020;-68
2022/06/24 06:25:55;;;;;;;23.98;12.18;;;18.00;99.90;;;;;;5065606;28;20028;-70
2022/06/24 06:28:21;;;;;;;24.88;10.98;;;17.80;99.90;;;;;;5064960;28;20037;-70
2022/06/24 06:30:47;;;;;;;37.30;11.65;;;17.90;99.90;;;;;;5064217;28;20074;-68
2022/06/24 06:33:12;;;;;;;25.02;9.15;;;18.00;99.90;;;;;;5047103;28;20040;-68
2022/06/24 06:35:38;;;;;;;22.88;9.23;;;17.90;99.90;;;;;;5065090;28;20029;-69
2022/06/24 06:38:04;;;;;;;18.88;8.50;;;17.90;99.90;;;;;;5065360;28;20311;-69
2022/06/24 06:40:33;;;;;;;19.38;7.85;;;17.90;99.90;;;;;;5066334;28;20063;-70
2022/06/24 06:43:00;;;;;;;14.93;7.15;;;18.00;99.90;;;;;;5085308;28;20083;-69
2022/06/24 06:45:27;;;;;;;15.05;6.72;;;17.80;99.90;;;;;;5084885;28;20091;-69
2022/06/24 06:47:52;;;;;;;16.27;5.70;;;17.70;99.90;;;;;;5062237;28;20220;-71
2022/06/24 06:50:18;;;;;;;25.40;7.85;;;17.80;99.90;;;;;;5079374;28;20084;-71
2022/06/24 06:52:44;;;;;;;17.42;6.32;;;17.80;99.90;;;;;;5084592;28;20012;-70
2022/06/24 06:55:10;;;;;;;15.20;5.25;;;17.80;99.90;;;;;;5066704;28;20346;-70
2022/06/24 06:57:36;;;;;;;13.93;5.63;;;17.80;99.90;;;;;;5061893;28;20013;-68
2022/06/24 07:00:03;;;;;;;18.67;5.85;;;17.80;99.70;;;;;;5064215;28;20029;-69
2022/06/24 07:02:29;;;;;;;17.60;5.95;;;17.80;99.80;;;;;;5063784;28;20040;-70
2022/06/24 07:04:55;;;;;;;18.50;5.82;;;17.80;99.80;;;;;;5063962;28;20076;-68
2022/06/24 07:07:21;;;;;;;19.38;6.07;;;17.80;99.70;;;;;;5064367;28;20024;-72
2022/06/24 07:09:46;;;;;;;23.77;6.95;;;17.90;99.70;;;;;;5063968;28;20219;-69
2022/06/24 07:12:13;;;;;;;18.33;7.53;;;17.80;99.70;;;;;;5061866;28;20047;-70
2022/06/24 07:14:41;;;;;;;16.55;7.28;;;17.70;99.80;;;;;;5062691;28;20031;-69
2022/06/24 07:17:07;;;;;;;21.55;8.73;;;17.70;99.90;;;;;;5063638;28;20335;-70
2022/06/24 07:19:33;;;;;;;16.67;7.85;;;17.70;99.90;;;;;;5044917;28;20021;-71
2022/06/24 07:21:59;;;;;;;16.60;8.35;;;17.80;99.90;;;;;;5063492;28;20021;-71
2022/06/24 07:24:25;;;;;;;22.02;9.60;;;17.70;99.90;;;;;;5061109;28;20029;-70
2022/06/24 07:26:50;;;;;;;19.52;9.68;;;17.70;99.80;;;;;;5061722;28;20016;-70
2022/06/24 07:29:16;;;;;;;20.90;9.73;;;17.60;99.90;;;;;;5046678;28;20204;-70
2022/06/24 07:31:42;;;;;;;20.80;9.85;;;17.60;99.90;;;;;;5058572;28;20024;-72
2022/06/24 07:34:08;;;;;;;31.17;10.23;;;17.70;99.90;;;;;;5061789;28;20039;-71
2022/06/24 07:36:34;;;;;;;21.73;10.70;;;17.70;99.90;;;;;;5061893;28;20237;-71
2022/06/24 07:38:59;;;;;;;21.15;11.20;;;17.90;99.60;;;;;;5045799;28;20219;-71
2022/06/24 07:41:25;;;;;;;22.83;11.52;;;17.90;99.30;;;;;;5071475;28;20020;-72
2022/06/24 07:43:51;;;;;;;19.90;10.55;;;18.00;99.20;;;;;;5065876;28;20025;-71
2022/06/24 07:46:17;;;;;;;22.80;11.07;;;18.10;98.80;;;;;;5062516;28;20051;-73
2022/06/24 07:48:42;;;;;;;15.48;10.35;;;18.10;98.60;;;;;;5061022;28;20124;-71
2022/06/24 07:51:13;;;;;;;18.50;10.32;;;18.10;98.80;;;;;;5045390;28;20040;-68
2022/06/24 07:53:40;;;;;;;24.40;10.90;;;18.20;98.60;;;;;;5061578;28;20084;-70
2022/06/24 07:58:52;;;;;;;26.88;11.23;;;18.30;98.70;;;;;;5044897;28;20020;-71
2022/06/24 08:01:18;;;;;;;27.23;12.07;;;18.40;98.40;;;;;;5056545;28;20047;-70
2022/06/24 08:03:44;;;;;;;23.38;11.15;;;18.60;98.10;;;;;;5053846;28;20040;-69
2022/06/24 08:06:10;;;;;;;18.13;10.55;;;18.80;97.70;;;;;;5037395;28;20053;-71
2022/06/24 08:08:36;;;;;;;17.35;10.38;;;19.10;97.20;;;;;;5061866;28;20082;-74
2022/06/24 08:11:02;;;;;;;15.75;9.20;;;19.30;96.70;;;;;;5044891;28;20124;-71
2022/06/24 08:13:29;;;;;;;16.30;8.80;;;19.50;95.80;;;;;;5062761;28;20051;-70
2022/06/24 08:15:56;;;;;;;12.07;8.23;;;19.40;95.30;;;;;;5061804;28;20021;-72
2022/06/24 08:18:22;;;;;;;15.95;8.70;;;19.30;95.40;;;;;;5062441;28;20021;-68
2022/06/24 08:20:48;;;;;;;16.23;8.65;;;19.20;95.30;;;;;;5062218;28;20050;-72
2022/06/24 08:23:14;;;;;;;20.58;8.68;;;19.20;95.50;;;;;;5061202;28;20308;-71
2022/06/24 08:25:39;;;;;;;16.30;8.27;;;19.30;95.00;;;;;;5061411;28;20024;-74
2022/06/24 08:28:05;;;;;;;11.45;7.28;;;19.50;94.60;;;;;;5061721;28;20103;-73
2022/06/24 08:30:31;;;;;;;16.00;8.02;;;19.60;94.40;;;;;;5060527;28;20205;-72
2022/06/24 08:32:57;;;;;;;12.25;7.55;;;19.50;94.10;;;;;;5061596;28;20048;-73
2022/06/24 08:35:23;;;;;;;11.20;6.78;;;19.40;94.00;;;;;;5065744;28;20195;-71
2022/06/24 08:37:49;;;;;;;16.55;7.32;;;19.30;94.30;;;;;;5065856;28;20021;-73
2022/06/24 08:40:16;;;;;;;14.25;8.15;;;19.40;94.40;;;;;;5066302;28;20051;-71
2022/06/24 08:42:44;;;;;;;12.02;7.30;;;19.40;94.10;;;;;;5049115;28;20035;-72
2022/06/24 08:45:12;;;;;;;15.13;7.35;;;19.40;94.10;;;;;;5066088;28;20020;-72
2022/06/24 08:47:39;;;;;;;11.85;7.65;;;19.30;93.90;;;;;;5065538;28;20108;-73
2022/06/24 08:50:09;;;;;;;16.27;7.72;;;19.30;94.20;;;;;;5061151;28;20096;-72
2022/06/24 08:52:35;;;;;;;12.90;7.60;;;19.30;94.60;;;;;;5065412;28;20033;-72
2022/06/24 08:55:03;;;;;;;20.15;8.70;;;19.20;94.50;;;;;;5065765;28;20027;-69
2022/06/24 08:57:30;;;;;;;16.88;8.98;;;19.20;94.50;;;;;;5065840;28;20044;-71
2022/06/24 08:59:56;;;;;;;17.05;8.80;;;19.00;94.60;;;;;;5064578;28;20247;-70
2022/06/24 09:02:22;;;;;;;16.38;9.57;;;19.00;94.80;;;;;;5064497;28;20033;-71
2022/06/24 09:04:47;;;;;;;16.20;9.77;;;18.80;95.30;;;;;;5066041;28;20035;-69
2022/06/24 09:07:22;;;;;;;15.18;10.13;;;18.70;95.50;;;;;;5066524;28;20299;-71
2022/06/24 09:10:09;;;;;;;23.92;12.07;;;18.80;95.30;;;;;;5064585;28;20028;-70
2022/06/24 09:12:44;;;;;;;18.80;11.65;;;18.90;95.40;;;;;;5063661;28;20084;-73
2022/06/24 09:15:11;;;;;;;24.52;12.27;;;18.90;95.30;;;;;;5065459;28;20024;-69
2022/06/24 09:17:38;;;;;;;24.58;13.05;;;18.90;95.10;;;;;;5064466;28;20294;-70
2022/06/24 09:20:12;;;;;;;19.02;12.13;;;18.90;95.40;;;;;;5061829;28;20066;-73
2022/06/24 09:22:38;;;;;;;20.95;12.30;;;19.10;95.40;;;;;;5064462;28;20009;-72
2022/06/24 09:25:05;;;;;;;30.17;14.05;;;19.20;95.00;;;;;;5063708;28;20029;-75
2022/06/24 09:27:31;;;;;;;21.60;13.55;;;19.10;95.30;;;;;;5063317;28;20021;-74
2022/06/24 09:29:57;;;;;;;28.08;14.35;;;18.90;95.40;;;;;;5047125;28;20028;-73
2022/06/24 09:32:23;;;;;;;24.83;13.90;;;18.80;95.90;;;;;;5065264;28;20029;-72
2022/06/24 09:35:08;;;;;;;20.60;14.10;;;18.70;96.30;;;;;;5065177;28;20080;-69
2022/06/24 09:37:42;;;;;;;25.90;14.05;;;18.60;96.70;;;;;;5065425;28;20044;-72
2022/06/24 09:40:28;;;;;;;20.23;13.00;;;18.60;97.00;;;;;;5048455;28;20059;-73
2022/06/24 09:43:00;;;;;;;22.60;13.48;;;18.80;97.00;;;;;;5064556;28;20116;-73
2022/06/24 09:45:52;;;;;;;20.42;12.23;;;19.10;96.70;;;;;;5063939;28;20419;-72
2022/06/24 09:48:32;;;;;;;26.10;13.57;;;19.40;96.30;;;;;;5051891;28;20052;-74
2022/06/24 09:51:00;;;;;;;24.15;13.18;;;19.60;95.50;;;;;;5065268;28;20024;-73
2022/06/24 09:53:27;;;;;;;21.77;11.25;;;19.80;95.20;;;;;;5039079;28;21269;-70
2022/06/24 09:55:54;;;;;;;23.05;12.80;;;20.00;95.10;;;;;;5047216;28;20058;-71
2022/06/24 09:58:21;;;;;;;30.80;11.35;;;20.20;94.70;;;;;;5063774;28;20337;-71
2022/06/24 10:00:49;;;;;;;21.30;10.88;;;20.40;94.10;;;;;;5062787;28;20078;-71
2022/06/24 10:03:15;;;;;;;18.05;10.35;;;20.30;94.00;;;;;;5065063;28;20048;-70
2022/06/24 10:05:44;;;;;;;16.70;10.27;;;20.00;94.40;;;;;;5061004;28;20217;-69
2022/06/24 10:08:14;;;;;;;19.33;8.90;;;19.80;94.60;;;;;;5060411;28;20021;-70
2022/06/24 10:10:50;;;;;;;15.20;8.13;;;19.70;95.10;;;;;;5060269;28;20048;-70
2022/06/24 10:13:27;;;;;;;12.45;6.57;;;19.50;95.40;;;;;;5044091;28;20026;-71
2022/06/24 10:15:56;;;;;;;16.25;6.78;;;19.40;95.70;;;;;;5063446;28;20021;-70
2022/06/24 10:18:27;;;;;;;10.95;6.82;;;19.20;96.80;;;;;;5064644;28;20296;-71
2022/06/24 10:20:57;;;;;;;10.73;5.90;;;18.90;98.30;;;;;;5063254;28;20056;-71
2022/06/24 10:23:51;;;;;;;9.15;5.50;;;18.70;98.90;;;;;;5063421;28;20048;-69
2022/06/24 10:26:30;;;;;;;7.25;4.25;;;18.60;99.90;;;;;;5064243;28;20035;-71
2022/06/24 10:29:17;;;;;;;5.70;3.65;;;18.50;99.90;;;;;;5046901;28;20323;-72
2022/06/24 10:31:53;;;;;;;8.57;3.53;;;18.60;99.90;;;;;;5050086;28;20020;-69
2022/06/24 10:34:34;;;;;;;6.05;3.25;;;18.50;99.90;;;;;;5043348;28;20033;-73
2022/06/24 10:37:25;;;;;;;5.40;3.58;;;18.60;99.90;;;;;;5043561;28;20104;-72
2022/06/24 10:39:59;;;;;;;8.50;4.07;;;18.70;99.90;;;;;;5042083;28;20324;-73
2022/06/24 10:42:26;;;;;;;8.95;3.97;;;18.80;99.90;;;;;;5056205;28;20084;-71
2022/06/24 10:45:05;;;;;;;4.63;2.90;;;19.10;99.90;;;;;;5063032;28;20040;-72
2022/06/24 10:47:39;;;;;;;3.13;2.88;;;19.30;99.90;;;;;;5063697;28;20044;-71
2022/06/24 10:50:09;;;;;;;10.63;3.20;;;19.50;99.90;;;;;;5063723;28;20025;-71
2022/06/24 10:52:56;;;;;;;4.35;2.45;;;19.70;99.40;;;;;;5064179;28;20084;-72
2022/06/24 10:55:32;;;;;;;4.40;2.60;;;19.70;98.60;;;;;;5063292;28;20092;-70
2022/06/24 10:58:06;;;;;;;5.82;3.10;;;19.60;98.10;;;;;;5041977;28;20032;-72
2022/06/24 11:00:48;;;;;;;6.30;3.15;;;19.40;98.50;;;;;;5042045;28;20040;-70
2022/06/24 11:03:20;;;;;;;10.02;4.47;;;19.60;98.10;;;;;;5062944;28;20041;-72
2022/06/24 11:05:47;;;;;;;8.02;4.55;;;19.70;97.20;;;;;;5061911;28;20029;-68
2022/06/24 11:08:15;;;;;;;6.07;4.97;;;20.00;96.50;;;;;;5063394;28;20290;-69
2022/06/24 11:10:41;;;;;;;7.00;4.50;;;20.50;95.90;;;;;;5063258;28;20342;-70
2022/06/24 11:13:07;;;;;;;12.52;5.82;;;20.70;95.00;;;;;;5045403;28;20039;-72
2022/06/24 11:15:43;;;;;;;11.35;5.72;;;21.00;94.10;;;;;;5062387;28;20021;-71
2022/06/24 11:18:11;;;;;;;10.23;5.00;;;21.10;93.70;;;;;;5062511;28;20021;-72
2022/06/24 11:20:41;;;;;;;11.10;6.15;;;21.20;93.50;;;;;;5062476;28;20040;-71
2022/06/24 11:23:09;;;;;;;15.75;5.95;;;21.40;93.30;;;;;;5063507;28;20189;-73
2022/06/24 11:25:37;;;;;;;11.77;5.55;;;21.50;93.00;;;;;;5063434;28;20027;-72
2022/06/24 11:28:03;;;;;;;14.10;5.68;;;21.50;91.70;;;;;;5063660;28;20024;-73
2022/06/24 11:30:29;;;;;;;11.27;5.80;;;21.40;91.40;;;;;;5062296;28;20343;-71
2022/06/24 11:32:57;;;;;;;15.65;5.75;;;21.30;91.40;;;;;;5063898;28;20040;-70
2022/06/24 11:35:24;;;;;;;11.77;5.18;;;21.40;91.80;;;;;;5064002;28;20017;-71
2022/06/24 11:37:51;;;;;;;11.00;5.68;;;21.50;91.30;;;;;;5063650;28;20304;-72
2022/06/24 11:40:26;;;;;;;11.50;5.68;;;21.40;91.30;;;;;;5065609;28;20043;-72
2022/06/24 11:42:53;;;;;;;11.18;4.97;;;21.50;91.00;;;;;;5050091;28;20020;-72
2022/06/24 11:45:40;;;;;;;16.35;6.03;;;21.60;90.60;;;;;;5056020;28;20037;-71
2022/06/24 11:48:08;;;;;;;10.63;5.38;;;21.30;90.90;;;;;;5058814;28;20128;-74
2022/06/24 11:50:35;;;;;;;18.80;5.15;;;21.30;91.10;;;;;;5074838;28;20021;-70
2022/06/24 11:53:02;;;;;;;15.82;5.07;;;21.30;90.80;;;;;;5056413;28;20212;-73
2022/06/24 11:55:31;;;;;;;7.97;4.50;;;21.30;90.30;;;;;;5074458;28;20029;-72
2022/06/24 11:58:00;;;;;;;8.60;4.63;;;21.30;90.10;;;;;;5056884;28;20076;-70
2022/06/24 12:00:30;;;;;;;6.95;4.18;;;21.50;90.00;;;;;;5069980;28;20036;-70
2022/06/24 12:02:57;;;;;;;9.80;4.80;;;21.80;89.50;;;;;;5051027;28;20039;-74
2022/06/24 12:05:26;;;;;;;4.43;3.33;;;22.10;88.30;;;;;;5055288;28;20025;-72
2022/06/24 12:07:53;;;;;;;8.15;4.22;;;22.30;85.80;;;;;;5054633;28;20311;-71
2022/06/24 12:10:19;;;;;;;7.93;3.53;;;22.50;84.90;;;;;;5065341;28;20055;-75
2022/06/24 12:13:06;;;;;;;27.25;4.82;;;22.70;84.40;;;;;;5064313;28;20284;-74
2022/06/24 12:15:52;;;;;;;10.45;3.97;;;22.80;84.00;;;;;;5062643;28;20016;-73
2022/06/24 12:18:19;;;;;;;7.82;3.67;;;22.90;82.90;;;;;;5062745;28;20025;-71
2022/06/24 12:21:06;;;;;;;6.35;4.13;;;22.90;82.10;;;;;;5062432;28;20020;-70
2022/06/24 12:23:36;;;;;;;7.55;4.07;;;22.70;81.90;;;;;;5062761;28;20017;-73
2022/06/24 12:26:11;;;;;;;14.82;4.72;;;22.30;83.90;;;;;;5045321;28;20044;-73
2022/06/24 12:28:37;;;;;;;12.38;5.53;;;22.40;83.20;;;;;;5061774;28;20025;-72
2022/06/24 12:31:05;;;;;;;11.20;5.85;;;22.50;83.00;;;;;;5062989;28;20021;-72
2022/06/24 12:33:34;;;;;;;8.18;4.50;;;22.70;81.50;;;;;;5061586;28;20029;-74
2022/06/24 12:36:14;;;;;;;6.63;4.00;;;22.60;82.60;;;;;;5061535;28;20296;-73
2022/06/24 12:39:08;;;;;;;12.10;4.80;;;22.70;82.20;;;;;;5061676;28;20040;-72
2022/06/24 12:41:49;;;;;;;7.93;3.88;;;23.00;81.90;;;;;;5062369;28;20025;-72
2022/06/24 12:44:16;;;;;;;14.75;7.43;;;23.10;81.20;;;;;;5062268;28;20036;-73